Time;durP1;ratioP1;P1;durP2;ratioP2;P2;SDS_P1;SDS_P2;PMS_P1;PMS_P2;Temp;Humidity;BMP_temperature;BMP_pressure;BME280_temperature;BME280_humidity;BME280_pressure;Samples;Min_cycle;Max_cycle;Signal;HPM_P1;HPM_P2
2021/03/13 00:02:18;;;;;;;1.90;1.45;;;5.00;99.90;;;;;;5114017;28;20175;-76
2021/03/13 00:04:46;;;;;;;1.73;1.30;;;5.00;99.90;;;;;;5095747;28;20218;-76
2021/03/13 00:07:13;;;;;;;1.10;0.85;;;5.10;99.90;;;;;;5095474;28;20596;-76
2021/03/13 00:09:40;;;;;;;2.00;0.90;;;5.10;99.90;;;;;;5095758;28;20206;-76
2021/03/13 00:12:09;;;;;;;2.65;1.45;;;5.10;99.90;;;;;;5095429;28;20278;-75
2021/03/13 00:14:36;;;;;;;2.05;1.30;;;5.10;99.90;;;;;;5095360;28;20214;-76
2021/03/13 00:17:04;;;;;;;0.98;0.88;;;5.20;99.90;;;;;;5113566;28;20254;-75
2021/03/13 00:19:32;;;;;;;1.65;1.20;;;5.20;99.90;;;;;;5113684;28;20186;-76
2021/03/13 00:21:59;;;;;;;2.65;1.67;;;5.20;99.90;;;;;;5114540;28;20183;-76
2021/03/13 00:24:26;;;;;;;4.93;0.90;;;5.20;99.90;;;;;;5096023;28;20676;-77
2021/03/13 00:26:53;;;;;;;1.15;0.80;;;5.30;99.90;;;;;;5113478;28;20210;-75
2021/03/13 00:29:20;;;;;;;2.88;2.67;;;5.30;99.90;;;;;;5114126;28;20201;-77
2021/03/13 00:31:52;;;;;;;1.35;1.00;;;5.30;99.90;;;;;;5114489;28;20616;-75
2021/03/13 00:34:21;;;;;;;5.88;1.30;;;5.40;99.90;;;;;;5114350;28;20171;-76
2021/03/13 00:36:48;;;;;;;1.17;0.70;;;5.40;99.90;;;;;;5114889;28;20175;-75
2021/03/13 00:39:16;;;;;;;0.90;0.75;;;5.30;99.90;;;;;;5113808;28;20519;-76
2021/03/13 00:41:44;;;;;;;2.58;1.38;;;5.30;99.90;;;;;;5114099;28;20174;-76
2021/03/13 00:44:11;;;;;;;1.10;0.90;;;5.20;99.90;;;;;;5114346;28;20175;-75
2021/03/13 00:46:40;;;;;;;2.35;0.90;;;5.20;99.90;;;;;;5114387;28;20171;-75
2021/03/13 00:49:08;;;;;;;1.70;0.90;;;5.20;99.90;;;;;;5095880;28;20198;-75
2021/03/13 00:51:36;;;;;;;1.42;1.17;;;5.10;99.90;;;;;;5095922;28;20358;-75
2021/03/13 00:54:04;;;;;;;1.13;1.02;;;5.10;99.90;;;;;;5096510;28;20244;-76
2021/03/13 00:56:31;;;;;;;2.55;1.15;;;5.00;99.90;;;;;;5096484;28;20245;-76
2021/03/13 00:58:59;;;;;;;3.58;1.17;;;5.00;99.90;;;;;;5097880;28;20254;-76
2021/03/13 01:01:26;;;;;;;1.90;0.95;;;5.00;99.90;;;;;;5114644;28;20189;-75
2021/03/13 01:03:53;;;;;;;3.60;1.60;;;5.00;99.90;;;;;;5096528;28;20195;-77
2021/03/13 01:06:20;;;;;;;2.03;1.00;;;5.10;99.90;;;;;;5113922;28;20213;-73
2021/03/13 01:08:49;;;;;;;1.30;0.88;;;5.10;99.90;;;;;;5095604;28;20206;-75
2021/03/13 01:11:24;;;;;;;3.05;1.00;;;5.10;99.90;;;;;;5095269;28;20190;-74
2021/03/13 01:13:58;;;;;;;3.30;1.20;;;5.10;99.90;;;;;;5097525;28;20212;-76
2021/03/13 01:16:32;;;;;;;1.30;1.20;;;5.10;99.90;;;;;;5098748;28;20209;-75
2021/03/13 01:19:00;;;;;;;1.20;1.00;;;5.10;99.90;;;;;;5099220;28;20745;-75
2021/03/13 01:21:29;;;;;;;1.10;0.73;;;5.10;99.90;;;;;;5103626;28;20556;-75
2021/03/13 01:23:57;;;;;;;1.40;1.25;;;5.10;99.90;;;;;;5109590;28;20183;-76
2021/03/13 01:26:30;;;;;;;4.72;1.50;;;5.10;99.90;;;;;;5125256;28;20263;-76
2021/03/13 01:29:01;;;;;;;1.88;1.17;;;5.00;99.90;;;;;;5105587;28;20317;-73
2021/03/13 01:31:43;;;;;;;4.80;1.20;;;5.00;99.90;;;;;;5105917;28;20186;-74
2021/03/13 01:34:10;;;;;;;1.95;1.00;;;5.00;99.90;;;;;;5119417;28;20186;-74
2021/03/13 01:36:44;;;;;;;2.30;1.58;;;5.00;99.90;;;;;;5097916;28;20179;-76
2021/03/13 01:39:12;;;;;;;1.40;1.05;;;5.00;99.90;;;;;;5116745;28;20211;-74
2021/03/13 01:41:41;;;;;;;2.13;1.00;;;4.90;99.90;;;;;;5116667;28;20182;-76
2021/03/13 01:44:08;;;;;;;9.07;1.35;;;4.90;99.90;;;;;;5097788;28;20191;-76
2021/03/13 01:46:36;;;;;;;1.60;1.27;;;4.90;99.90;;;;;;5116301;28;20178;-76
2021/03/13 01:49:04;;;;;;;1.02;0.93;;;4.80;99.90;;;;;;5098151;28;20353;-77
2021/03/13 01:51:34;;;;;;;2.78;1.00;;;4.80;99.90;;;;;;5098621;28;20604;-76
2021/03/13 01:54:08;;;;;;;1.40;1.15;;;4.90;99.90;;;;;;5090428;28;20187;-74
2021/03/13 01:56:38;;;;;;;2.40;1.48;;;4.90;99.90;;;;;;5157876;22;20218;-69
2021/03/13 01:59:05;;;;;;;2.35;1.60;;;4.90;99.90;;;;;;5115410;27;20259;-70
2021/03/13 02:01:41;;;;;;;1.83;1.15;;;4.90;99.90;;;;;;5134262;27;20544;-69
2021/03/13 02:04:10;;;;;;;2.05;1.60;;;5.00;99.90;;;;;;5115819;27;20710;-68
2021/03/13 02:06:44;;;;;;;2.25;1.25;;;5.00;99.90;;;;;;5116522;27;20210;-68
2021/03/13 02:09:19;;;;;;;2.00;1.75;;;5.00;99.90;;;;;;5134019;27;20568;-69
2021/03/13 02:11:53;;;;;;;4.18;1.60;;;5.00;99.90;;;;;;5115637;27;20610;-71
2021/03/13 02:14:33;;;;;;;3.30;1.67;;;5.00;99.90;;;;;;5115567;27;20250;-68
2021/03/13 02:17:14;;;;;;;3.25;1.80;;;4.90;99.90;;;;;;5115402;27;20214;-70
2021/03/13 02:20:12;;;;;;;3.78;2.15;;;4.90;99.90;;;;;;5115495;27;20206;-70
2021/03/13 02:22:44;;;;;;;5.45;1.70;;;4.70;99.90;;;;;;5115953;27;20186;-71
2021/03/13 02:25:40;;;;;;;2.10;1.85;;;4.60;99.90;;;;;;5113631;28;20220;-69
2021/03/13 02:28:21;;;;;;;3.97;1.42;;;4.60;99.90;;;;;;5105659;28;20257;-68
2021/03/13 02:30:54;;;;;;;1.83;1.30;;;4.60;99.90;;;;;;5113074;28;20206;-69
2021/03/13 02:33:26;;;;;;;2.17;1.45;;;4.60;99.90;;;;;;5125346;27;20186;-70
2021/03/13 02:36:01;;;;;;;4.05;2.25;;;4.60;99.90;;;;;;5114983;27;20263;-70
2021/03/13 02:38:43;;;;;;;1.92;1.17;;;4.60;99.90;;;;;;5115456;27;20266;-69
2021/03/13 02:41:15;;;;;;;2.03;1.00;;;4.70;99.90;;;;;;5134173;27;20204;-70
2021/03/13 02:43:47;;;;;;;1.70;1.40;;;4.70;99.90;;;;;;5116655;27;20178;-69
2021/03/13 02:46:19;;;;;;;3.28;1.65;;;4.70;99.90;;;;;;5116428;27;20301;-73
2021/03/13 02:48:48;;;;;;;2.25;1.60;;;4.70;99.90;;;;;;5115354;27;20202;-72
2021/03/13 02:51:19;;;;;;;3.50;2.70;;;4.60;99.90;;;;;;5115254;27;20176;-71
2021/03/13 02:53:47;;;;;;;3.38;2.70;;;4.70;99.90;;;;;;5115068;27;20194;-69
2021/03/13 02:56:16;;;;;;;4.80;1.95;;;4.70;99.90;;;;;;5114669;27;20213;-69
2021/03/13 02:58:50;;;;;;;2.90;2.17;;;4.80;99.90;;;;;;5133910;27;20572;-69
2021/03/13 03:01:22;;;;;;;3.97;1.95;;;4.90;99.90;;;;;;5115208;27;20204;-69
2021/03/13 03:03:52;;;;;;;3.40;2.63;;;4.90;99.90;;;;;;5114595;27;20193;-71
2021/03/13 03:06:26;;;;;;;2.95;1.45;;;5.00;99.90;;;;;;5114660;27;20297;-71
2021/03/13 03:08:56;;;;;;;2.50;1.90;;;5.10;99.90;;;;;;5114437;27;20202;-70
2021/03/13 03:11:32;;;;;;;1.77;1.45;;;5.10;99.90;;;;;;5114477;27;20281;-70
2021/03/13 03:14:03;;;;;;;2.25;2.05;;;5.10;99.90;;;;;;5114656;27;20193;-72
2021/03/13 03:16:37;;;;;;;2.15;1.75;;;5.00;99.90;;;;;;5114761;27;20240;-71
2021/03/13 03:19:07;;;;;;;2.05;1.85;;;5.00;99.90;;;;;;5114539;27;20221;-71
2021/03/13 03:21:40;;;;;;;2.85;1.98;;;5.00;99.90;;;;;;5115285;27;20186;-71
2021/03/13 03:24:10;;;;;;;3.35;2.42;;;4.90;99.90;;;;;;5114767;27;20199;-70
2021/03/13 03:26:40;;;;;;;2.42;1.50;;;4.90;99.90;;;;;;5114601;27;20214;-70
2021/03/13 03:29:08;;;;;;;3.97;2.22;;;4.90;99.90;;;;;;5111066;27;20611;-69
2021/03/13 03:31:37;;;;;;;4.13;2.40;;;4.80;99.90;;;;;;5114367;27;20193;-70
2021/03/13 03:34:07;;;;;;;4.78;2.75;;;4.80;99.90;;;;;;5114795;27;20192;-70
2021/03/13 03:36:37;;;;;;;2.75;2.10;;;4.70;99.90;;;;;;5114667;27;20213;-72
2021/03/13 03:39:05;;;;;;;2.53;2.33;;;4.60;99.90;;;;;;5114390;27;20194;-69
2021/03/13 03:41:38;;;;;;;3.90;2.30;;;4.50;99.90;;;;;;5114656;27;20573;-70
2021/03/13 03:44:11;;;;;;;1.88;1.77;;;4.50;99.90;;;;;;5115167;27;20182;-70
2021/03/13 03:46:44;;;;;;;2.72;2.53;;;4.50;99.90;;;;;;5114550;27;20209;-73
2021/03/13 03:49:14;;;;;;;6.75;3.53;;;4.50;99.90;;;;;;5115008;27;20283;-70
2021/03/13 03:51:53;;;;;;;3.00;2.65;;;4.40;99.90;;;;;;5114660;27;20284;-71
2021/03/13 03:54:23;;;;;;;2.92;2.35;;;4.40;99.90;;;;;;5115008;27;20556;-71
2021/03/13 03:56:52;;;;;;;2.95;1.88;;;4.40;99.90;;;;;;5132742;27;20225;-68
2021/03/13 03:59:22;;;;;;;1.70;1.60;;;4.40;99.90;;;;;;5114053;27;20277;-70
2021/03/13 04:01:53;;;;;;;2.20;1.60;;;4.40;99.90;;;;;;5132698;27;20170;-70
2021/03/13 04:04:22;;;;;;;1.88;1.60;;;4.30;99.90;;;;;;5132633;27;20181;-72
2021/03/13 04:06:51;;;;;;;4.90;3.10;;;4.30;99.90;;;;;;5132763;27;20202;-70
2021/03/13 04:09:22;;;;;;;4.35;1.58;;;4.30;99.90;;;;;;5132621;28;20190;-69
2021/03/13 04:11:50;;;;;;;3.05;2.75;;;4.30;99.90;;;;;;5132560;28;20170;-69
2021/03/13 04:14:18;;;;;;;3.55;1.80;;;4.30;99.90;;;;;;5132530;28;20223;-70
2021/03/13 04:16:46;;;;;;;4.13;2.00;;;4.40;99.90;;;;;;5132243;28;20202;-72
2021/03/13 04:19:14;;;;;;;2.22;1.52;;;4.50;99.90;;;;;;5132326;28;20200;-73
2021/03/13 04:21:42;;;;;;;2.25;1.15;;;4.50;99.90;;;;;;5132434;28;20688;-70
2021/03/13 04:24:12;;;;;;;6.90;2.55;;;4.50;99.90;;;;;;5132385;28;20595;-70
2021/03/13 04:26:40;;;;;;;2.78;1.52;;;4.40;99.90;;;;;;5132553;28;20209;-69
2021/03/13 04:29:07;;;;;;;2.05;1.77;;;4.40;99.90;;;;;;5132522;28;20190;-68
2021/03/13 04:31:37;;;;;;;2.85;2.00;;;4.30;99.90;;;;;;5132348;28;20211;-69
2021/03/13 04:34:06;;;;;;;4.25;1.90;;;4.40;99.90;;;;;;5113930;28;20185;-70
2021/03/13 04:36:34;;;;;;;2.05;1.48;;;4.50;99.90;;;;;;5132143;28;20208;-68
2021/03/13 04:39:04;;;;;;;2.03;1.70;;;4.60;99.90;;;;;;5132426;28;20185;-72
2021/03/13 04:41:34;;;;;;;1.90;1.38;;;4.70;99.90;;;;;;5132344;28;20171;-69
2021/03/13 04:44:01;;;;;;;2.00;1.65;;;4.70;99.90;;;;;;5132101;28;20189;-68
2021/03/13 04:46:32;;;;;;;2.83;1.65;;;4.80;99.90;;;;;;5132840;28;20662;-68
2021/03/13 04:49:01;;;;;;;2.45;1.45;;;4.80;99.90;;;;;;5134407;27;20290;-68
2021/03/13 04:51:29;;;;;;;1.92;1.73;;;4.80;99.90;;;;;;5136248;27;20210;-68
2021/03/13 04:53:57;;;;;;;2.00;1.80;;;4.80;99.90;;;;;;5136038;27;20190;-71
2021/03/13 04:56:24;;;;;;;2.58;1.95;;;4.90;99.90;;;;;;5135799;27;20217;-73
2021/03/13 04:58:51;;;;;;;1.83;1.42;;;5.00;99.90;;;;;;5117561;27;20186;-69
2021/03/13 05:01:18;;;;;;;1.80;1.40;;;5.00;99.90;;;;;;5135810;27;20265;-71
2021/03/13 05:03:45;;;;;;;2.63;2.40;;;5.10;99.90;;;;;;5135918;27;20202;-69
2021/03/13 05:06:13;;;;;;;3.13;1.90;;;5.10;99.90;;;;;;5116973;27;20682;-70
2021/03/13 05:08:40;;;;;;;1.42;1.20;;;5.10;99.90;;;;;;5135708;27;20383;-68
2021/03/13 05:11:09;;;;;;;6.03;2.30;;;5.10;99.90;;;;;;5135936;27;20642;-69
2021/03/13 05:13:36;;;;;;;2.15;1.95;;;5.10;99.90;;;;;;5135649;27;20261;-71
2021/03/13 05:16:04;;;;;;;7.97;1.58;;;5.10;99.90;;;;;;5135808;27;20225;-69
2021/03/13 05:18:32;;;;;;;1.50;1.00;;;5.10;99.90;;;;;;5135844;27;20623;-69
2021/03/13 05:20:59;;;;;;;1.85;1.30;;;5.00;99.90;;;;;;5136321;27;20166;-70
2021/03/13 05:23:26;;;;;;;2.28;1.35;;;4.90;99.90;;;;;;5135805;27;20569;-69
2021/03/13 05:25:53;;;;;;;1.45;1.35;;;4.90;99.90;;;;;;5135151;27;20186;-70
2021/03/13 05:28:21;;;;;;;5.10;1.65;;;4.90;99.90;;;;;;5135259;27;20229;-70
2021/03/13 05:30:49;;;;;;;1.98;1.55;;;4.90;99.90;;;;;;5135610;27;20257;-70
2021/03/13 05:33:16;;;;;;;8.07;1.25;;;4.90;99.90;;;;;;5135409;27;20190;-69
2021/03/13 05:35:43;;;;;;;1.17;0.98;;;4.90;99.90;;;;;;5135623;27;20182;-70
2021/03/13 05:38:11;;;;;;;3.17;1.35;;;4.90;99.90;;;;;;5135554;27;20561;-70
2021/03/13 05:40:38;;;;;;;2.17;1.25;;;4.90;99.90;;;;;;5135253;27;20174;-69
2021/03/13 05:43:05;;;;;;;1.52;1.17;;;4.90;99.90;;;;;;5135251;27;20175;-73
2021/03/13 05:45:34;;;;;;;1.35;1.05;;;4.90;99.90;;;;;;5116664;27;20178;-68
2021/03/13 05:48:02;;;;;;;1.75;0.90;;;4.90;99.90;;;;;;5134955;27;20206;-71
2021/03/13 05:50:30;;;;;;;1.50;1.40;;;4.90;99.90;;;;;;5134911;27;20672;-68
2021/03/13 05:52:59;;;;;;;1.52;1.10;;;5.00;99.90;;;;;;5134911;27;20210;-71
2021/03/13 05:55:26;;;;;;;3.28;1.13;;;5.10;99.90;;;;;;5135201;27;20623;-69
2021/03/13 05:57:53;;;;;;;4.18;1.50;;;5.10;99.90;;;;;;5135026;27;20237;-72
2021/03/13 06:00:22;;;;;;;3.55;1.75;;;5.20;99.90;;;;;;5134623;27;20707;-69
2021/03/13 06:02:51;;;;;;;1.00;0.80;;;5.30;99.90;;;;;;5134875;27;20599;-71
2021/03/13 06:05:18;;;;;;;2.00;1.23;;;5.50;99.90;;;;;;5116185;27;20190;-69
2021/03/13 06:07:48;;;;;;;1.17;1.08;;;5.60;99.90;;;;;;5134473;27;20216;-72
2021/03/13 06:10:15;;;;;;;1.90;1.00;;;5.60;99.90;;;;;;5134600;27;20220;-69
2021/03/13 06:12:43;;;;;;;1.10;1.00;;;5.60;99.90;;;;;;5134667;27;20540;-68
2021/03/13 06:15:11;;;;;;;3.42;1.55;;;5.70;99.90;;;;;;5134666;27;20182;-70
2021/03/13 06:17:59;;;;;;;2.92;1.80;;;5.70;99.90;;;;;;5134054;27;20222;-72
2021/03/13 06:20:35;;;;;;;3.97;1.27;;;5.70;99.90;;;;;;5123658;27;20187;-69
2021/03/13 06:23:11;;;;;;;1.77;1.58;;;5.80;99.90;;;;;;5113829;28;20170;-68
2021/03/13 06:25:38;;;;;;;2.28;1.30;;;5.80;99.90;;;;;;5114044;28;20634;-70
2021/03/13 06:28:14;;;;;;;3.28;2.10;;;5.80;99.90;;;;;;5113934;28;20225;-69
2021/03/13 06:30:43;;;;;;;1.83;1.63;;;5.80;99.90;;;;;;5130561;27;20685;-69
2021/03/13 06:33:26;;;;;;;1.33;1.23;;;5.90;99.90;;;;;;5116046;27;20661;-69
2021/03/13 06:35:54;;;;;;;1.80;1.23;;;5.90;99.90;;;;;;5134306;27;20209;-69
2021/03/13 06:38:23;;;;;;;1.15;1.05;;;6.00;99.90;;;;;;5134226;27;20231;-68
2021/03/13 06:40:51;;;;;;;1.77;1.45;;;6.10;99.90;;;;;;5134454;27;20186;-70
2021/03/13 06:43:21;;;;;;;2.10;1.60;;;6.10;99.90;;;;;;5134229;27;20190;-69
2021/03/13 06:46:03;;;;;;;6.32;2.03;;;6.20;99.90;;;;;;5134172;27;20194;-69
2021/03/13 06:48:38;;;;;;;4.05;2.17;;;6.30;99.90;;;;;;5134034;27;20284;-68
2021/03/13 06:51:16;;;;;;;2.85;1.50;;;6.30;99.90;;;;;;5134484;27;20173;-69
2021/03/13 06:53:43;;;;;;;4.15;2.08;;;6.50;99.90;;;;;;5134069;27;20174;-69
2021/03/13 06:56:12;;;;;;;4.15;1.92;;;6.60;99.90;;;;;;5134381;27;20225;-70
2021/03/13 06:58:40;;;;;;;2.10;1.25;;;6.70;99.90;;;;;;5135892;27;20258;-69
2021/03/13 07:01:09;;;;;;;3.50;1.98;;;6.70;99.90;;;;;;5135973;27;20216;-68
2021/03/13 07:03:50;;;;;;;2.47;2.03;;;6.70;99.90;;;;;;5135919;27;20620;-70
2021/03/13 07:06:17;;;;;;;2.33;1.58;;;6.70;99.90;;;;;;5135653;27;20201;-69
2021/03/13 07:08:45;;;;;;;2.15;1.95;;;6.70;99.90;;;;;;5141555;27;20567;-71
2021/03/13 07:11:18;;;;;;;2.45;1.77;;;6.70;99.90;;;;;;5132091;27;20541;-73
2021/03/13 07:13:47;;;;;;;2.00;1.20;;;6.80;99.90;;;;;;5133346;27;20185;-69
2021/03/13 07:16:33;;;;;;;3.33;1.67;;;6.80;99.90;;;;;;5133846;27;20214;-68
2021/03/13 07:19:04;;;;;;;3.10;2.17;;;6.80;99.90;;;;;;5133584;27;20224;-71
2021/03/13 07:21:32;;;;;;;3.10;1.45;;;6.90;99.90;;;;;;5133584;27;20239;-71
2021/03/13 07:24:02;;;;;;;2.38;1.52;;;6.80;99.90;;;;;;5114586;27;20224;-70
2021/03/13 07:26:35;;;;;;;1.00;0.90;;;6.90;99.90;;;;;;5103076;28;20244;-73
2021/03/13 07:29:04;;;;;;;2.85;1.92;;;6.90;99.90;;;;;;5093907;28;20686;-70
2021/03/13 07:31:36;;;;;;;2.00;1.40;;;6.90;99.90;;;;;;5112749;28;20175;-70
2021/03/13 07:34:06;;;;;;;3.10;2.75;;;7.00;99.90;;;;;;5112908;28;20175;-70
2021/03/13 07:36:38;;;;;;;3.22;1.60;;;6.90;99.90;;;;;;5112106;28;20643;-70
2021/03/13 07:39:12;;;;;;;2.60;2.30;;;7.00;99.90;;;;;;5112608;28;20236;-70
2021/03/13 07:41:47;;;;;;;1.70;1.60;;;7.10;99.90;;;;;;5094277;28;20186;-70
2021/03/13 07:44:15;;;;;;;5.28;1.45;;;7.10;99.90;;;;;;5112907;28;20174;-70
2021/03/13 07:46:43;;;;;;;2.42;1.23;;;7.00;99.90;;;;;;5112343;28;20207;-71
2021/03/13 07:49:13;;;;;;;2.13;1.48;;;6.90;99.90;;;;;;5112521;28;20217;-69
2021/03/13 07:51:41;;;;;;;3.03;1.90;;;6.80;99.90;;;;;;5112681;28;20182;-70
2021/03/13 07:54:09;;;;;;;4.43;2.08;;;6.80;99.90;;;;;;5113501;28;20187;-71
2021/03/13 07:56:40;;;;;;;4.45;1.60;;;6.80;99.90;;;;;;5112780;28;20221;-70
2021/03/13 07:59:09;;;;;;;1.92;1.00;;;6.80;99.90;;;;;;5113422;28;20171;-69
2021/03/13 08:01:46;;;;;;;2.95;1.77;;;6.90;99.90;;;;;;5113324;28;20191;-68
2021/03/13 08:04:52;;;;;;;2.65;1.92;;;6.70;99.90;;;;;;5095487;28;20538;-69
2021/03/13 08:07:21;;;;;;;2.42;1.70;;;6.60;99.90;;;;;;5115518;28;20279;-75
2021/03/13 08:09:48;;;;;;;2.22;1.70;;;6.60;99.90;;;;;;5112892;28;20195;-71
2021/03/13 08:12:37;;;;;;;2.10;1.85;;;6.80;99.90;;;;;;5112751;28;20587;-71
2021/03/13 08:15:10;;;;;;;1.67;1.40;;;7.00;99.90;;;;;;5111632;28;20195;-71
2021/03/13 08:17:42;;;;;;;2.65;2.25;;;7.20;99.90;;;;;;5111621;28;20241;-71
2021/03/13 08:20:11;;;;;;;1.50;1.40;;;7.00;99.90;;;;;;5093341;28;20179;-70
2021/03/13 08:22:38;;;;;;;2.47;1.42;;;6.80;99.90;;;;;;5113775;28;20187;-71
2021/03/13 08:25:27;;;;;;;1.58;1.20;;;6.90;99.90;;;;;;5116790;28;20666;-70
2021/03/13 08:27:54;;;;;;;2.28;1.63;;;6.80;99.90;;;;;;5116885;28;20293;-69
2021/03/13 08:30:24;;;;;;;3.58;2.13;;;6.70;99.90;;;;;;5115973;28;20206;-68
2021/03/13 08:33:02;;;;;;;3.33;2.10;;;6.70;99.90;;;;;;5116256;28;20554;-68
2021/03/13 08:35:51;;;;;;;2.97;1.52;;;6.70;99.90;;;;;;5116658;28;20262;-68
2021/03/13 08:38:41;;;;;;;1.65;1.40;;;6.70;99.90;;;;;;5116642;28;20605;-74
2021/03/13 08:41:10;;;;;;;1.95;1.77;;;6.80;99.90;;;;;;5115905;28;20182;-69
2021/03/13 08:43:49;;;;;;;4.20;2.10;;;6.80;99.90;;;;;;5116096;28;20175;-70
2021/03/13 08:46:44;;;;;;;2.22;2.03;;;6.80;99.90;;;;;;5115488;28;20249;-69
2021/03/13 08:49:13;;;;;;;3.13;1.90;;;6.80;99.90;;;;;;5115849;28;20695;-70
2021/03/13 08:51:41;;;;;;;2.65;1.90;;;6.70;99.90;;;;;;5115188;28;20175;-69
2021/03/13 08:54:09;;;;;;;1.85;1.13;;;6.80;99.90;;;;;;5115511;28;20190;-70
2021/03/13 08:56:47;;;;;;;2.20;1.90;;;6.70;99.90;;;;;;5115668;28;20214;-69
2021/03/13 08:59:18;;;;;;;3.95;1.80;;;6.70;99.90;;;;;;5115844;28;20178;-68
2021/03/13 09:02:01;;;;;;;2.47;1.73;;;6.60;99.90;;;;;;5115590;28;20277;-70
2021/03/13 09:04:30;;;;;;;1.75;1.55;;;6.60;99.90;;;;;;5115842;28;20206;-68
2021/03/13 09:06:57;;;;;;;3.00;1.95;;;6.70;99.90;;;;;;5115103;28;20306;-70
2021/03/13 09:09:26;;;;;;;2.33;2.10;;;6.80;99.90;;;;;;5115006;28;20194;-72
2021/03/13 09:12:00;;;;;;;1.70;1.60;;;6.60;99.90;;;;;;5115202;28;20178;-69
2021/03/13 09:14:27;;;;;;;2.95;1.70;;;6.80;99.90;;;;;;5115133;28;20179;-71
2021/03/13 09:16:55;;;;;;;2.70;1.60;;;6.70;99.90;;;;;;5114984;28;20561;-71
2021/03/13 09:19:24;;;;;;;2.40;1.92;;;6.60;99.90;;;;;;5114985;28;20575;-70
2021/03/13 09:21:53;;;;;;;3.78;2.22;;;6.60;99.90;;;;;;5116560;28;20179;-70
2021/03/13 09:24:21;;;;;;;4.20;1.95;;;6.60;99.90;;;;;;5126215;27;20587;-72
2021/03/13 09:26:53;;;;;;;3.33;2.28;;;6.60;99.90;;;;;;5137633;27;20205;-71
2021/03/13 09:29:32;;;;;;;3.28;1.50;;;6.60;99.90;;;;;;5137164;27;20624;-73
2021/03/13 09:32:03;;;;;;;3.13;2.40;;;6.50;99.90;;;;;;5137034;27;20258;-70
2021/03/13 09:34:33;;;;;;;1.90;1.80;;;6.60;99.90;;;;;;5135859;27;20637;-72
2021/03/13 09:37:10;;;;;;;2.13;1.75;;;6.60;99.90;;;;;;5118031;27;20213;-71
2021/03/13 09:39:37;;;;;;;2.10;1.90;;;6.60;99.90;;;;;;5136873;27;20224;-70
2021/03/13 09:42:07;;;;;;;2.35;1.60;;;6.60;99.90;;;;;;5137286;27;20197;-72
2021/03/13 09:44:37;;;;;;;2.97;1.75;;;6.70;99.90;;;;;;5143562;27;20178;-75
2021/03/13 09:47:20;;;;;;;4.75;2.25;;;6.70;99.90;;;;;;5145882;27;20210;-74
2021/03/13 09:49:51;;;;;;;2.03;1.55;;;6.80;99.90;;;;;;5139649;27;20210;-71
2021/03/13 09:52:24;;;;;;;6.38;2.72;;;6.80;99.90;;;;;;5138313;27;20216;-70
2021/03/13 09:54:59;;;;;;;1.88;1.77;;;6.90;99.90;;;;;;5142214;27;20181;-72
2021/03/13 09:57:27;;;;;;;4.85;2.17;;;7.00;99.90;;;;;;5147348;27;20762;-71
2021/03/13 09:59:55;;;;;;;3.38;1.60;;;7.10;99.90;;;;;;5142685;27;20444;-72
2021/03/13 10:02:23;;;;;;;1.75;1.52;;;7.20;99.90;;;;;;5136300;27;20316;-73
2021/03/13 10:04:55;;;;;;;3.95;2.00;;;7.30;99.90;;;;;;5138139;27;20201;-73
2021/03/13 10:07:29;;;;;;;3.95;2.08;;;7.30;99.90;;;;;;5138561;27;20577;-71
2021/03/13 10:09:59;;;;;;;1.95;1.13;;;7.30;99.90;;;;;;5137070;27;20213;-73
2021/03/13 10:12:32;;;;;;;2.72;1.73;;;7.30;99.90;;;;;;5140257;27;20589;-73
2021/03/13 10:15:27;;;;;;;2.10;1.88;;;7.30;99.90;;;;;;5139342;27;20204;-74
2021/03/13 10:18:00;;;;;;;1.33;1.13;;;7.40;99.90;;;;;;5106811;27;20221;-70
2021/03/13 10:20:29;;;;;;;7.88;1.52;;;7.40;99.90;;;;;;5146174;27;20190;-72
2021/03/13 10:23:04;;;;;;;1.88;1.25;;;7.60;99.90;;;;;;5141922;27;20643;-72
2021/03/13 10:25:32;;;;;;;2.45;1.55;;;7.60;99.90;;;;;;5141326;27;20252;-69
2021/03/13 10:28:04;;;;;;;2.47;1.13;;;7.60;99.90;;;;;;5140537;27;20229;-69
2021/03/13 10:30:32;;;;;;;1.50;1.40;;;7.90;99.90;;;;;;5123572;27;20705;-71
2021/03/13 10:33:00;;;;;;;1.80;1.70;;;8.00;99.90;;;;;;5139472;27;20176;-70
2021/03/13 10:35:30;;;;;;;1.20;0.80;;;8.10;99.90;;;;;;5144460;27;20186;-70
2021/03/13 10:37:58;;;;;;;1.90;1.40;;;8.20;99.90;;;;;;5138055;27;20233;-73
2021/03/13 10:40:43;;;;;;;1.30;1.15;;;8.20;99.90;;;;;;5136571;27;20166;-72
2021/03/13 10:43:32;;;;;;;1.95;1.30;;;8.20;99.90;;;;;;5126137;27;20195;-70
2021/03/13 10:46:10;;;;;;;1.55;0.80;;;8.30;99.90;;;;;;5134783;27;21928;-72
2021/03/13 10:48:57;;;;;;;3.20;1.17;;;8.20;99.90;;;;;;5135571;27;20706;-70
2021/03/13 10:51:26;;;;;;;2.30;0.80;;;8.30;99.90;;;;;;5135235;27;20180;-71
2021/03/13 10:53:54;;;;;;;1.52;0.75;;;8.30;99.90;;;;;;5134838;27;20182;-71
2021/03/13 10:56:22;;;;;;;1.40;0.85;;;8.30;99.90;;;;;;5135824;27;20241;-72
2021/03/13 10:58:51;;;;;;;1.48;0.95;;;8.30;99.90;;;;;;5134957;27;20180;-72
2021/03/13 11:01:20;;;;;;;1.05;0.85;;;8.40;99.90;;;;;;5133788;27;20186;-69
2021/03/13 11:03:49;;;;;;;4.32;2.88;;;8.40;99.90;;;;;;5134334;27;20186;-71
2021/03/13 11:06:32;;;;;;;1.25;0.88;;;8.40;99.90;;;;;;5133796;27;20296;-69
2021/03/13 11:09:01;;;;;;;4.53;1.45;;;8.60;99.90;;;;;;5115264;27;20246;-71
2021/03/13 11:11:29;;;;;;;1.70;1.30;;;8.50;99.90;;;;;;5133892;27;20170;-69
2021/03/13 11:13:56;;;;;;;2.38;0.88;;;8.60;99.90;;;;;;5154878;22;20230;-85
2021/03/13 11:16:25;;;;;;;1.75;0.90;;;8.60;99.90;;;;;;5122218;28;20260;-82
2021/03/13 11:18:58;;;;;;;1.70;1.15;;;8.60;99.90;;;;;;5108951;28;20248;-83
2021/03/13 11:21:57;;;;;;;1.65;1.00;;;8.60;99.90;;;;;;5112169;27;20182;-80
2021/03/13 11:24:34;;;;;;;0.90;0.70;;;8.70;99.90;;;;;;5121193;28;20256;-79
2021/03/13 11:27:06;;;;;;;1.60;1.17;;;8.80;99.90;;;;;;5120912;28;20178;-81
2021/03/13 11:29:34;;;;;;;1.65;1.05;;;9.10;99.90;;;;;;5115738;28;20206;-83
2021/03/13 11:32:03;;;;;;;1.60;0.88;;;9.30;99.90;;;;;;5097543;28;20233;-83
2021/03/13 11:34:34;;;;;;;1.10;0.90;;;9.00;99.90;;;;;;5103634;28;20187;-81
2021/03/13 11:37:01;;;;;;;0.93;0.70;;;8.90;99.90;;;;;;5088119;28;20222;-80
2021/03/13 11:39:28;;;;;;;1.55;0.88;;;9.00;99.90;;;;;;5122746;28;20175;-77
2021/03/13 11:42:02;;;;;;;1.52;1.15;;;9.00;99.90;;;;;;5127577;28;20175;-79
2021/03/13 11:44:30;;;;;;;2.75;1.30;;;9.10;99.90;;;;;;5126275;28;20198;-82
2021/03/13 11:46:57;;;;;;;2.65;0.98;;;9.40;99.90;;;;;;5099734;28;20191;-81
2021/03/13 11:49:25;;;;;;;1.58;1.17;;;9.50;99.90;;;;;;5081513;28;20241;-83
2021/03/13 11:51:53;;;;;;;1.48;0.93;;;9.60;99.90;;;;;;5082391;28;20274;-82
2021/03/13 11:54:20;;;;;;;1.25;0.80;;;9.90;99.90;;;;;;5100557;28;20171;-81
2021/03/13 11:56:47;;;;;;;2.15;0.93;;;10.00;99.90;;;;;;5104071;28;20361;-80
2021/03/13 11:59:15;;;;;;;1.10;0.80;;;10.00;99.90;;;;;;5105919;28;20176;-85
2021/03/13 12:01:42;;;;;;;1.13;0.93;;;10.00;99.90;;;;;;5109463;28;20511;-85
2021/03/13 12:04:10;;;;;;;1.33;0.70;;;10.00;99.90;;;;;;5122928;28;20249;-82
2021/03/13 12:06:38;;;;;;;1.20;1.10;;;10.30;99.90;;;;;;5103221;28;20626;-81
2021/03/13 12:09:05;;;;;;;1.20;1.10;;;10.20;99.90;;;;;;5101092;28;20210;-82
2021/03/13 12:11:32;;;;;;;1.70;0.90;;;10.30;99.90;;;;;;5106316;28;20237;-81
2021/03/13 12:14:00;;;;;;;1.10;0.95;;;10.40;99.90;;;;;;5113698;28;20202;-80
2021/03/13 12:16:27;;;;;;;1.80;1.23;;;10.60;99.90;;;;;;5098756;28;20210;-81
2021/03/13 12:18:56;;;;;;;2.38;1.50;;;10.90;99.90;;;;;;5102057;28;20183;-82
2021/03/13 12:21:23;;;;;;;2.30;1.10;;;11.00;99.90;;;;;;5099489;28;20828;-82
2021/03/13 12:23:52;;;;;;;1.52;0.95;;;11.00;99.90;;;;;;5070197;28;20283;-81
2021/03/13 12:26:19;;;;;;;2.72;1.23;;;11.20;99.90;;;;;;5095836;28;20237;-80
2021/03/13 12:28:47;;;;;;;0.90;0.67;;;11.50;99.90;;;;;;5098704;28;20179;-81
2021/03/13 12:31:15;;;;;;;1.33;1.00;;;11.60;99.90;;;;;;5098710;28;20835;-81
2021/03/13 12:33:42;;;;;;;2.10;0.88;;;11.50;99.90;;;;;;5098024;28;20424;-83
2021/03/13 12:36:11;;;;;;;1.43;0.97;;;11.50;99.90;;;;;;5098851;28;20462;-80
2021/03/13 12:38:38;;;;;;;1.00;0.90;;;11.50;99.90;;;;;;5077785;28;20405;-79
2021/03/13 12:41:07;;;;;;;1.58;1.00;;;11.50;99.90;;;;;;5100085;28;20496;-84
2021/03/13 12:43:34;;;;;;;1.00;0.80;;;11.40;99.90;;;;;;5102252;28;20188;-80
2021/03/13 12:46:02;;;;;;;1.25;0.90;;;11.40;99.90;;;;;;5090837;28;20755;-81
2021/03/13 12:48:30;;;;;;;2.00;1.10;;;11.30;99.90;;;;;;5100721;28;20198;-82
2021/03/13 12:50:58;;;;;;;1.05;0.70;;;11.10;99.90;;;;;;5098816;28;20194;-81
2021/03/13 12:53:25;;;;;;;2.90;0.90;;;11.00;99.90;;;;;;5099100;28;20189;-81
2021/03/13 12:55:52;;;;;;;1.13;0.75;;;11.10;99.90;;;;;;5080054;28;20215;-81
2021/03/13 12:58:21;;;;;;;1.05;0.63;;;11.10;99.90;;;;;;5098930;28;20198;-82
2021/03/13 13:00:50;;;;;;;2.55;1.10;;;11.30;99.90;;;;;;5102473;28;20182;-81
2021/03/13 13:03:18;;;;;;;0.87;0.60;;;11.40;99.90;;;;;;5106383;28;20184;-79
2021/03/13 13:05:45;;;;;;;0.90;0.60;;;11.40;99.90;;;;;;5104071;28;20449;-81
2021/03/13 13:08:13;;;;;;;1.52;0.77;;;11.50;99.90;;;;;;5109823;28;20401;-80
2021/03/13 13:10:40;;;;;;;1.10;0.90;;;11.40;99.90;;;;;;5091422;28;20212;-81
2021/03/13 13:13:13;;;;;;;1.10;0.60;;;11.30;99.90;;;;;;5113691;28;20470;-82
2021/03/13 13:15:42;;;;;;;2.58;1.50;;;11.10;99.90;;;;;;5109985;28;20223;-82